KORD

Chicago O'hare International Airport

Chicago, Illinois, USA
METAR KORD 191451Z 21014G18KT 10SM BKN250 M01/M07 A2989 RMK AO2 SLP129 T10061072 53002
Observed Flight Rules
Jan-19 @ 14:51 UTC (29 minutes ago) Visual Flight Rules
Wind Visibility Clouds
210° at 14 knots
 Gusting to 18 knots
10 miles
  • Broken at 25,000' AGL
Temperatures Readings
Current -1°C / 30°F
Dewpoint -7°C / 19°F
Humidity 64%
Altimeter 29.89" Hg
Pressure 1012.9 hPa
Elevation 200
METAR KORD 191451Z 21014G18KT 10SM BKN250 M01/M07 A2989 RMK AO2 SLP129 T10061072 53002
Observed Flight Rules
Jan-19 @ 14:51 UTC
(29 minutes ago)
VFR
Wind Visibility
210° at 14 knots
 Gusting to 18 knots
10 miles
Clouds
  • Broken at 25,000' AGL
Temperature Dewpoint
-1°C / 30°F -7°C / 19°F
Humidity Altimeter Pressure
64% 29.89" Hg 1012.9 hPa